This is the latest recevied weather packets stored in our database for station/object GW7204. If no packets are shown the sender has not sent any weather packets the latest 10 day(s).
| Time | Temp. | Humidity | Pressure | Rain* | Wind** | Luminosity | Snow |
|---|---|---|---|---|---|---|---|
| 1777691175 | 3.33° C | 98% | 1016.2 hPa | 1.02 mm | - | - | - |
| 1777681112 | 8.89° C | 68% | 1014.5 hPa | 1.02 mm | - | - | - |
| 1777680766 | 8.89° C | 66% | 1014.5 hPa | 1.02 mm | - | - | - |
| 1777679693 | 10.56° C | 65% | 1014.2 hPa | 1.02 mm | - | - | - |
| 1777678973 | 10° C | 67% | 1013.8 hPa | 1.02 mm | - | - | - |
| 1777674654 | 10.56° C | 65% | 1013.5 hPa | 1.02 mm | - | - | - |
| 1777671759 | 10.56° C | 65% | 1013.2 hPa | 1.02 mm | - | - | - |
| 1777661322 | 10° C | 86% | 1011.8 hPa | 1.02 mm | - | - | - |
| 1777660943 | 10° C | 87% | 1012.1 hPa | 1.02 mm | - | - | - |
| 1777658814 | 10° C | 85% | 1012.1 hPa | 0.76 mm | - | - | - |
| 1777653757 | 12.22° C | 73% | 1011.1 hPa | 0 mm | - | - | - |
| 1777646530 | 12.22° C | 64% | 1011.1 hPa | 0 mm | - | - | - |
| 1777645821 | 12.22° C | 65% | 1011.1 hPa | 0 mm | - | - | - |
| 1777645450 | 11.67° C | 67% | 1011.1 hPa | 0 mm | - | - | - |
| 1777643292 | 7.78° C | 99% | 1011.5 hPa | 0 mm | - | - | - |
| 1777639339 | 4.44° C | 99% | 1011.8 hPa | 0 mm | - | - | - |
| 1777638989 | 4.44° C | 99% | 1011.8 hPa | 0 mm | - | - | - |
| 1777638616 | 3.89° C | 99% | 1012.1 hPa | 0 mm | - | - | - |
| 1777630365 | 0° C | 99% | 1012.5 hPa | 0 mm | - | - | - |
| 1777629263 | 0° C | 99% | 1012.5 hPa | 0 mm | - | - | - |
| 1777628902 | 0° C | 99% | 1012.8 hPa | 0 mm | - | - | - |
| 1777626758 | 0° C | 99% | 1012.8 hPa | 0 mm | - | - | - |
| 1777625668 | 0° C | 99% | 1013.2 hPa | 0 mm | - | - | - |
| 1777624612 | 0° C | 99% | 1013.2 hPa | 0 mm | - | - | - |
| 1777624253 | 0° C | 99% | 1013.2 hPa | 0 mm | - | - | - |
* Rain since midnight (hover to see other rain measurements)
** Current wind speed in m/s (hover to see current wind gust speed)